createdAt,value
2023-01-15T00:00:53.216Z,5.33
2023-01-15T00:06:23.647Z,5.44
2023-01-15T00:11:46.756Z,5.52
2023-01-15T00:17:12.706Z,5.52
2023-01-15T00:22:35.651Z,5.70
2023-01-15T00:27:58.268Z,5.72
2023-01-15T00:33:21.363Z,5.78
2023-01-15T00:38:43.679Z,5.88
2023-01-15T00:44:06.059Z,5.96
2023-01-15T00:49:28.903Z,5.97
2023-01-15T00:54:51.552Z,5.97
2023-01-15T01:00:14.611Z,5.98
2023-01-15T01:05:38.161Z,5.96
2023-01-15T01:11:10.603Z,6.01
2023-01-15T01:16:54.022Z,6.11
2023-01-15T01:22:16.702Z,6.22
2023-01-15T01:27:39.272Z,6.29
2023-01-15T01:33:04.542Z,6.38
2023-01-15T01:38:27.036Z,6.43
2023-01-15T01:44:00.255Z,6.46
2023-01-15T01:49:25.595Z,6.54
2023-01-15T01:54:50.908Z,6.50
2023-01-15T02:00:15.921Z,6.58
2023-01-15T02:05:57.148Z,6.67
2023-01-15T02:11:27.710Z,6.61
2023-01-15T02:17:03.777Z,6.64
2023-01-15T02:23:04.951Z,6.71
2023-01-15T02:28:23.159Z,6.75
2023-01-15T02:34:03.842Z,6.76
2023-01-15T02:39:29.949Z,6.76
2023-01-15T02:44:56.578Z,6.75
2023-01-15T02:50:35.464Z,6.94
2023-01-15T02:56:03.607Z,6.81
2023-01-15T03:01:34.052Z,6.86
2023-01-15T03:07:01.411Z,6.97
2023-01-15T03:13:04.733Z,7.02
2023-01-15T03:18:31.159Z,7.07
2023-01-15T03:23:59.601Z,7.07
2023-01-15T03:29:24.896Z,7.12
2023-01-15T03:35:07.149Z,7.15
2023-01-15T03:40:30.227Z,7.13
2023-01-15T03:45:55.516Z,7.14
2023-01-15T03:51:28.676Z,7.20
2023-01-15T03:57:07.660Z,7.14
2023-01-15T04:02:32.357Z,7.11
2023-01-15T04:07:55.238Z,7.15
2023-01-15T04:13:18.986Z,7.18
2023-01-15T04:18:41.729Z,7.20
2023-01-15T04:24:04.446Z,7.24
2023-01-15T04:29:27.116Z,7.28
2023-01-15T04:34:49.815Z,7.30
2023-01-15T04:45:46.241Z,7.33
2023-01-15T04:51:11.406Z,7.21
2023-01-15T04:56:34.885Z,7.15
2023-01-15T05:02:04.650Z,7.17
2023-01-15T05:07:23.243Z,7.14
2023-01-15T05:12:45.768Z,7.14
2023-01-15T05:18:10.034Z,7.15
2023-01-15T05:23:32.358Z,7.15
2023-01-15T05:28:55.671Z,7.13
2023-01-15T05:34:18.502Z,7.13
2023-01-15T05:39:40.922Z,7.06
2023-01-15T05:45:03.778Z,7.02
2023-01-15T05:50:28.414Z,6.98
2023-01-15T05:55:50.107Z,6.85
2023-01-15T06:01:13.952Z,6.51
2023-01-15T06:06:37.496Z,6.26
2023-01-15T06:12:00.126Z,6.10
2023-01-15T06:17:22.499Z,5.93
2023-01-15T06:22:47.659Z,5.81
2023-01-15T06:28:11.595Z,5.75
2023-01-15T06:33:34.230Z,5.69
2023-01-15T06:38:57.591Z,5.67
2023-01-15T06:44:41.172Z,5.70
2023-01-15T06:50:05.420Z,5.72
2023-01-15T06:55:28.172Z,5.71
2023-01-15T07:06:32.833Z,5.93
2023-01-15T07:11:57.582Z,5.89
2023-01-15T07:17:22.559Z,5.92
2023-01-15T07:22:46.794Z,5.96
2023-01-15T07:28:11.774Z,6.00
2023-01-15T07:33:36.440Z,6.04
2023-01-15T07:39:00.213Z,6.13
2023-01-15T07:44:42.492Z,6.21
2023-01-15T07:50:05.537Z,6.26
2023-01-15T07:55:28.696Z,6.33
2023-01-15T08:00:51.014Z,6.40
2023-01-15T08:06:13.546Z,6.43
2023-01-15T08:11:53.965Z,6.47
2023-01-15T08:17:10.522Z,6.55
2023-01-15T08:22:33.130Z,6.58
2023-01-15T08:27:56.848Z,6.63
2023-01-15T08:33:21.742Z,6.73
2023-01-15T08:38:43.999Z,6.76
2023-01-15T08:44:08.466Z,6.81
2023-01-15T08:49:33.033Z,6.87
2023-01-15T08:54:55.625Z,6.93
2023-01-15T09:00:19.402Z,7.02
2023-01-15T09:05:43.151Z,7.07
2023-01-15T09:11:09.448Z,7.10
2023-01-15T09:16:33.281Z,7.13
2023-01-15T09:21:55.520Z,7.21
2023-01-15T09:27:18.642Z,7.23
2023-01-15T09:32:41.613Z,7.25
2023-01-15T09:38:05.594Z,7.26
2023-01-15T09:43:56.916Z,7.29
2023-01-15T09:49:42.658Z,7.28
2023-01-15T09:55:12.366Z,7.28
2023-01-15T10:00:42.021Z,7.30
2023-01-15T10:06:20.997Z,7.31
2023-01-15T10:12:17.425Z,7.29
2023-01-15T10:17:55.274Z,7.29
2023-01-15T10:23:40.639Z,6.44
2023-01-15T10:29:21.111Z,5.57
2023-01-15T10:35:09.010Z,4.65
2023-01-15T10:41:22.874Z,4.28
2023-01-15T10:46:49.089Z,4.14
2023-01-15T10:52:44.832Z,4.07
2023-01-15T11:04:12.614Z,4.13
2023-01-15T11:09:40.535Z,4.05
2023-01-15T11:15:21.977Z,4.01
2023-01-15T11:20:50.839Z,4.05
2023-01-15T11:26:16.534Z,4.11
2023-01-15T11:31:52.696Z,4.05
2023-01-15T11:37:24.470Z,4.06
2023-01-15T11:43:08.970Z,4.10
2023-01-15T11:48:54.161Z,4.12
2023-01-15T11:54:20.846Z,4.14
2023-01-15T11:59:45.022Z,4.17
2023-01-15T12:05:24.407Z,4.09
2023-01-15T12:11:17.516Z,4.11
2023-01-15T12:17:01.765Z,4.05
2023-01-15T12:22:52.805Z,4.05
2023-01-15T12:28:36.070Z,3.94
2023-01-15T12:34:21.426Z,3.99
2023-01-15T12:40:09.937Z,4.00
2023-01-15T12:45:56.713Z,4.17
2023-01-15T12:51:24.490Z,4.11
2023-01-15T12:57:04.062Z,4.14
2023-01-15T13:02:37.363Z,4.20
2023-01-15T13:08:29.131Z,4.16
2023-01-15T13:14:00.558Z,4.19
2023-01-15T13:19:44.994Z,4.18
2023-01-15T13:25:24.364Z,4.18
2023-01-15T13:31:02.104Z,4.16
2023-01-15T13:36:46.305Z,4.13
2023-01-15T13:42:29.838Z,4.09
2023-01-15T13:47:59.009Z,4.11
2023-01-15T13:53:54.060Z,4.05
2023-01-15T13:59:37.883Z,4.08
2023-01-15T14:05:03.681Z,4.08
2023-01-15T14:10:35.623Z,4.09
2023-01-15T14:16:45.047Z,4.09
2023-01-15T14:23:07.155Z,4.05
2023-01-15T14:28:43.239Z,4.02
2023-01-15T14:34:37.783Z,3.98
2023-01-15T14:40:11.061Z,3.95
2023-01-15T14:45:42.018Z,3.99
2023-01-15T14:51:16.584Z,3.94
2023-01-15T14:56:47.664Z,3.91
2023-01-15T15:02:22.806Z,3.97
2023-01-15T15:07:55.472Z,4.00
2023-01-15T15:13:39.591Z,3.99
2023-01-15T15:19:19.887Z,3.98
2023-01-15T15:24:48.898Z,3.95
2023-01-15T15:30:21.345Z,3.93
2023-01-15T15:35:47.523Z,3.92
2023-01-15T15:41:19.568Z,3.84
2023-01-15T15:47:03.149Z,3.79
2023-01-15T15:52:37.824Z,3.77
2023-01-15T15:58:05.024Z,3.72
2023-01-15T16:03:41.388Z,3.74
2023-01-15T16:09:07.078Z,3.75
2023-01-15T16:14:37.531Z,3.77
2023-01-15T16:20:03.737Z,3.76
2023-01-15T16:25:37.960Z,3.73
2023-01-15T16:31:06.479Z,3.70
2023-01-15T16:36:34.190Z,3.71
2023-01-15T16:42:03.189Z,3.69
2023-01-15T16:47:40.458Z,3.68
2023-01-15T16:53:13.803Z,3.63
2023-01-15T16:58:52.122Z,3.59
2023-01-15T17:04:28.376Z,3.58
2023-01-15T17:10:25.660Z,3.70
2023-01-15T17:15:51.978Z,3.57
2023-01-15T17:21:37.507Z,3.56
2023-01-15T17:27:00.540Z,3.53
2023-01-15T17:32:33.012Z,3.53
2023-01-15T17:37:55.597Z,3.51
2023-01-15T17:43:20.617Z,3.51
2023-01-15T17:48:42.965Z,3.56
2023-01-15T17:54:05.867Z,3.63
2023-01-15T17:59:47.828Z,3.75
2023-01-15T18:05:30.027Z,3.90
2023-01-15T18:10:52.765Z,3.90
2023-01-15T18:16:17.666Z,3.94
2023-01-15T18:21:51.863Z,4.03
2023-01-15T18:27:15.538Z,3.93
2023-01-15T18:32:44.327Z,3.94
2023-01-15T18:38:08.214Z,3.88
2023-01-15T18:43:49.344Z,3.79
2023-01-15T18:49:12.899Z,3.71
2023-01-15T18:54:37.069Z,3.64
2023-01-15T18:59:59.783Z,3.62
2023-01-15T19:05:22.598Z,3.60
2023-01-15T19:10:47.486Z,3.52
2023-01-15T19:16:30.038Z,3.51
2023-01-15T19:22:13.560Z,3.57
2023-01-15T19:27:37.624Z,3.52
2023-01-15T19:33:01.764Z,3.50
2023-01-15T19:38:26.405Z,3.37
2023-01-15T19:44:06.953Z,3.34
2023-01-15T19:49:49.927Z,3.30
2023-01-15T20:00:49.511Z,3.33
2023-01-15T20:06:13.817Z,3.21
2023-01-15T20:11:37.653Z,3.23
2023-01-15T20:17:00.761Z,3.18
2023-01-15T20:22:24.900Z,3.23
2023-01-15T20:27:49.682Z,3.18
2023-01-15T20:33:13.509Z,3.18
2023-01-15T20:38:36.091Z,3.19
2023-01-15T20:44:15.958Z,3.16
2023-01-15T20:49:38.393Z,3.14
2023-01-15T20:55:00.733Z,3.16
2023-01-15T21:00:26.996Z,3.12
2023-01-15T21:05:50.295Z,3.15
2023-01-15T21:11:14.875Z,3.12
2023-01-15T21:16:37.418Z,3.18
2023-01-15T21:21:59.934Z,3.09
2023-01-15T21:27:22.391Z,3.11
2023-01-15T21:32:46.570Z,3.03
2023-01-15T21:38:08.852Z,3.10
2023-01-15T21:43:52.232Z,3.05
2023-01-15T21:49:18.033Z,3.01
2023-01-15T21:54:41.511Z,2.95
2023-01-15T22:00:04.980Z,2.90
2023-01-15T22:05:28.161Z,2.94
2023-01-15T22:10:51.589Z,2.92
2023-01-15T22:16:14.621Z,2.84
2023-01-15T22:21:36.975Z,2.88
2023-01-15T22:27:00.413Z,2.94
2023-01-15T22:32:24.225Z,2.93
2023-01-15T22:37:46.497Z,2.95
2023-01-15T22:48:47.979Z,3.22
2023-01-15T22:54:13.766Z,3.08
2023-01-15T22:59:36.175Z,3.02
2023-01-15T23:04:58.466Z,2.99
2023-01-15T23:10:23.007Z,3.02
2023-01-15T23:15:45.267Z,2.95
2023-01-15T23:21:12.155Z,2.90
2023-01-15T23:26:37.749Z,2.77
2023-01-15T23:32:00.205Z,2.81
2023-01-15T23:37:22.663Z,2.91
2023-01-15T23:43:02.433Z,2.85
2023-01-15T23:48:25.019Z,2.85
2023-01-15T23:53:47.630Z,2.77
2023-01-15T23:59:10.979Z,2.67
